Time;durP1;ratioP1;P1;durP2;ratioP2;P2;SDS_P1;SDS_P2;PMS_P1;PMS_P2;Temp;Humidity;BMP_temperature;BMP_pressure;BME280_temperature;BME280_humidity;BME280_pressure;Samples;Min_cycle;Max_cycle;Signal;HPM_P1;HPM_P2
2023/01/22 00:00:57;;;;;;;1.08;0.98;;;20.20;35.20;;;;;;5057398;28;20127;-68
2023/01/22 00:03:24;;;;;;;0.73;0.73;;;20.20;35.20;;;;;;5057642;28;20123;-68
2023/01/22 00:05:51;;;;;;;0.90;0.90;;;20.20;35.20;;;;;;5057203;28;20091;-68
2023/01/22 00:08:19;;;;;;;1.20;1.10;;;20.20;35.20;;;;;;5058311;28;20044;-68
2023/01/22 00:10:51;;;;;;;0.68;0.68;;;20.20;35.20;;;;;;5058487;28;20122;-68
2023/01/22 00:13:19;;;;;;;1.10;0.98;;;20.20;35.20;;;;;;5058522;28;20464;-68
2023/01/22 00:15:46;;;;;;;0.95;0.95;;;20.20;35.20;;;;;;5058398;28;20072;-68
2023/01/22 00:18:14;;;;;;;0.88;0.80;;;20.20;35.20;;;;;;5058328;28;20057;-68
2023/01/22 00:20:52;;;;;;;0.82;0.82;;;20.20;35.20;;;;;;5057867;28;20068;-68
2023/01/22 00:23:20;;;;;;;1.00;1.00;;;20.20;35.20;;;;;;5056359;28;20578;-68
2023/01/22 00:25:47;;;;;;;1.35;0.90;;;20.20;35.20;;;;;;5058398;28;20088;-68
2023/01/22 00:28:15;;;;;;;0.80;0.80;;;20.20;35.20;;;;;;5058058;28;20071;-68
2023/01/22 00:30:43;;;;;;;0.75;0.75;;;20.20;35.20;;;;;;5058033;28;20045;-68
2023/01/22 00:33:10;;;;;;;1.42;0.98;;;20.20;35.30;;;;;;5058268;28;20409;-68
2023/01/22 00:35:38;;;;;;;1.00;1.00;;;20.20;35.30;;;;;;5057993;28;20215;-68
2023/01/22 00:38:05;;;;;;;0.77;0.77;;;20.20;35.30;;;;;;5056531;28;20481;-68
2023/01/22 00:40:32;;;;;;;1.02;1.02;;;20.20;35.30;;;;;;5057873;28;20084;-68
2023/01/22 00:43:00;;;;;;;0.68;0.68;;;20.20;35.30;;;;;;5057814;28;20084;-68
2023/01/22 00:45:27;;;;;;;0.90;0.90;;;20.20;35.30;;;;;;5057170;28;20049;-68
2023/01/22 00:47:54;;;;;;;0.60;0.60;;;20.20;35.30;;;;;;5057946;28;20048;-67
2023/01/22 00:50:21;;;;;;;0.98;0.90;;;20.20;35.30;;;;;;5057624;28;20464;-68
2023/01/22 00:52:48;;;;;;;1.15;1.10;;;20.20;35.30;;;;;;5058055;28;20108;-68
2023/01/22 00:55:15;;;;;;;1.10;0.95;;;20.20;35.30;;;;;;5056070;28;20044;-68
2023/01/22 00:57:43;;;;;;;0.95;0.82;;;20.20;35.20;;;;;;5057487;28;20107;-68
2023/01/22 01:00:13;;;;;;;0.95;0.90;;;20.20;35.20;;;;;;5056871;28;20537;-68
2023/01/22 01:05:28;;;;;;;1.13;1.05;;;20.20;35.30;;;;;;5057286;28;20090;-68
2023/01/22 01:07:55;;;;;;;1.42;1.10;;;20.20;35.20;;;;;;5057722;28;20072;-68
2023/01/22 01:10:22;;;;;;;0.90;0.90;;;20.20;35.30;;;;;;5056553;28;20119;-68
2023/01/22 01:12:49;;;;;;;0.90;0.82;;;20.20;35.30;;;;;;5057307;28;20506;-68
2023/01/22 01:15:16;;;;;;;0.90;0.90;;;20.20;35.30;;;;;;5057220;28;20076;-68
2023/01/22 01:17:45;;;;;;;0.82;0.82;;;20.10;35.20;;;;;;5056897;28;20087;-67
2023/01/22 01:20:12;;;;;;;0.82;0.82;;;20.20;35.30;;;;;;5057243;28;20091;-68
2023/01/22 01:22:39;;;;;;;1.00;0.80;;;20.20;35.30;;;;;;5057182;28;20052;-68
2023/01/22 01:25:06;;;;;;;0.75;0.70;;;20.20;35.30;;;;;;5056613;28;20140;-68
2023/01/22 01:27:33;;;;;;;0.70;0.70;;;20.20;35.30;;;;;;5057670;28;20122;-64
2023/01/22 01:30:01;;;;;;;0.80;0.80;;;20.10;35.20;;;;;;5055954;28;20136;-68
2023/01/22 01:32:28;;;;;;;0.70;0.70;;;20.10;35.20;;;;;;5057301;28;20095;-68
2023/01/22 01:34:55;;;;;;;1.15;1.05;;;20.10;35.20;;;;;;5055835;28;20099;-68
2023/01/22 01:37:22;;;;;;;0.85;0.85;;;20.10;35.20;;;;;;5056294;28;20127;-68
2023/01/22 01:39:51;;;;;;;0.80;0.80;;;20.20;35.30;;;;;;5056828;28;20051;-65
2023/01/22 01:42:24;;;;;;;0.85;0.85;;;20.10;35.20;;;;;;5056492;28;20053;-68
2023/01/22 01:45:24;;;;;;;0.90;0.90;;;20.10;35.20;;;;;;5055553;28;20501;-68
2023/01/22 01:48:15;;;;;;;1.10;1.00;;;20.10;35.30;;;;;;5037201;28;20041;-68
2023/01/22 01:50:48;;;;;;;0.90;0.90;;;20.10;35.20;;;;;;5035227;28;20076;-63
2023/01/22 01:53:16;;;;;;;1.20;1.13;;;20.10;35.20;;;;;;5036997;28;20120;-68
2023/01/22 01:55:43;;;;;;;0.60;0.60;;;20.10;35.30;;;;;;5053325;28;20140;-68
2023/01/22 01:58:20;;;;;;;0.75;0.75;;;20.10;35.30;;;;;;5055931;28;20099;-68
2023/01/22 02:00:52;;;;;;;1.52;1.20;;;20.10;35.30;;;;;;5056688;28;20386;-68
2023/01/22 02:03:20;;;;;;;0.85;0.77;;;20.10;35.30;;;;;;5056603;28;20052;-68
2023/01/22 02:05:47;;;;;;;1.35;1.25;;;20.10;35.30;;;;;;5056891;28;20462;-68
2023/01/22 02:08:16;;;;;;;0.98;0.88;;;20.10;35.30;;;;;;5056268;28;20073;-68
2023/01/22 02:10:44;;;;;;;0.90;0.90;;;20.10;35.30;;;;;;5056547;28;20041;-67
2023/01/22 02:13:18;;;;;;;1.25;1.15;;;20.10;35.30;;;;;;5056416;28;20052;-68
2023/01/22 02:15:45;;;;;;;1.55;1.40;;;20.10;35.30;;;;;;5056509;28;20051;-68
2023/01/22 02:18:12;;;;;;;0.80;0.80;;;20.10;35.30;;;;;;5056111;28;20084;-68
2023/01/22 02:20:50;;;;;;;0.98;0.98;;;20.10;35.30;;;;;;5055600;28;20095;-68
2023/01/22 02:23:17;;;;;;;1.33;1.23;;;20.10;35.30;;;;;;5055843;28;20126;-68
2023/01/22 02:25:44;;;;;;;1.13;1.02;;;20.10;35.30;;;;;;5055988;28;20470;-68
2023/01/22 02:28:11;;;;;;;1.05;0.90;;;20.10;35.30;;;;;;5056251;28;20138;-68
2023/01/22 02:30:38;;;;;;;1.38;0.80;;;20.10;35.30;;;;;;5055451;28;20056;-68
2023/01/22 02:33:05;;;;;;;0.80;0.80;;;20.10;35.30;;;;;;5056177;28;20076;-68
2023/01/22 02:35:32;;;;;;;1.27;1.10;;;20.10;35.40;;;;;;5056397;28;20057;-63
2023/01/22 02:38:00;;;;;;;0.95;0.95;;;20.10;35.40;;;;;;5055921;28;20284;-68
2023/01/22 02:40:28;;;;;;;0.70;0.70;;;20.10;35.30;;;;;;5055704;28;20111;-68
2023/01/22 02:42:56;;;;;;;0.82;0.82;;;20.10;35.40;;;;;;5056154;28;20072;-68
2023/01/22 02:45:23;;;;;;;0.95;0.85;;;20.10;35.40;;;;;;5057070;28;20400;-68
2023/01/22 02:47:50;;;;;;;1.17;1.08;;;20.10;35.40;;;;;;5059246;28;20053;-67
2023/01/22 02:50:18;;;;;;;1.00;1.00;;;20.10;35.40;;;;;;5060259;28;20164;-68
2023/01/22 02:52:45;;;;;;;0.75;0.75;;;20.10;35.40;;;;;;5060336;28;20509;-68
2023/01/22 02:55:12;;;;;;;0.70;0.70;;;20.10;35.40;;;;;;5058564;28;20136;-68
2023/01/22 02:57:40;;;;;;;1.75;1.42;;;20.10;35.50;;;;;;5059876;28;20052;-68
2023/01/22 03:00:07;;;;;;;0.70;0.70;;;20.10;35.40;;;;;;5058182;28;20132;-68
2023/01/22 03:02:35;;;;;;;0.90;0.90;;;20.10;35.40;;;;;;5059226;28;20080;-68
2023/01/22 03:05:03;;;;;;;0.70;0.70;;;20.10;35.40;;;;;;5059614;28;20431;-68
2023/01/22 03:07:41;;;;;;;0.90;0.90;;;20.20;35.40;;;;;;5060277;28;20535;-68
2023/01/22 03:10:14;;;;;;;1.05;1.05;;;20.10;35.40;;;;;;5059541;28;20081;-68
2023/01/22 03:21:15;;;;;;;0.90;0.90;;;20.10;35.30;;;;;;5059435;28;20067;-68
2023/01/22 03:23:46;;;;;;;0.90;0.90;;;20.10;35.30;;;;;;5059496;28;20124;-68
2023/01/22 03:26:14;;;;;;;0.90;0.90;;;20.10;35.30;;;;;;5059252;28;20045;-68
2023/01/22 03:28:41;;;;;;;1.00;0.90;;;20.10;35.40;;;;;;5058522;28;20048;-68
2023/01/22 03:31:08;;;;;;;0.73;0.73;;;20.10;35.40;;;;;;5058032;28;20064;-68
2023/01/22 03:33:36;;;;;;;0.63;0.63;;;20.00;35.30;;;;;;5059344;28;20048;-68
2023/01/22 03:36:09;;;;;;;0.95;0.90;;;20.10;35.40;;;;;;5057669;28;20132;-68
2023/01/22 03:38:36;;;;;;;1.08;1.00;;;20.10;35.40;;;;;;5058641;28;20053;-68
2023/01/22 03:41:06;;;;;;;1.17;1.10;;;20.10;35.40;;;;;;5058865;28;20045;-68
2023/01/22 03:43:34;;;;;;;1.08;1.00;;;20.10;35.40;;;;;;5058991;28;20091;-69
2023/01/22 03:46:18;;;;;;;1.25;0.90;;;20.10;35.40;;;;;;5058732;28;20136;-68
2023/01/22 03:48:49;;;;;;;0.90;0.90;;;20.00;35.30;;;;;;5059295;28;20048;-68
2023/01/22 03:51:18;;;;;;;0.77;0.77;;;20.10;35.40;;;;;;5059160;28;20040;-68
2023/01/22 03:53:45;;;;;;;0.90;0.90;;;20.00;35.30;;;;;;5058998;28;20048;-68
2023/01/22 03:56:21;;;;;;;1.17;0.93;;;20.10;35.40;;;;;;5058633;28;20052;-68
2023/01/22 03:58:49;;;;;;;0.85;0.85;;;20.00;35.40;;;;;;5058024;28;20132;-68
2023/01/22 04:01:20;;;;;;;0.70;0.70;;;20.00;35.40;;;;;;5058737;28;20132;-68
2023/01/22 04:03:47;;;;;;;;;;;20.00;35.30;;;;;;5059078;28;20088;-68
2023/01/22 04:06:15;;;;;;;1.17;1.08;;;20.00;35.30;;;;;;5057638;28;20111;-68
2023/01/22 04:08:44;;;;;;;0.80;0.80;;;20.00;35.40;;;;;;5058879;28;20143;-68
2023/01/22 04:11:12;;;;;;;0.50;0.50;;;20.10;35.40;;;;;;5058506;28;20052;-69
2023/01/22 04:13:41;;;;;;;1.35;0.88;;;20.00;35.40;;;;;;5058226;28;20319;-68
2023/01/22 04:16:10;;;;;;;0.80;0.73;;;20.00;35.40;;;;;;5057915;28;20116;-68
2023/01/22 04:18:37;;;;;;;0.70;0.70;;;20.00;35.40;;;;;;5058394;28;20047;-68
2023/01/22 04:21:05;;;;;;;0.90;0.90;;;20.00;35.40;;;;;;5058030;28;20045;-68
2023/01/22 04:23:32;;;;;;;0.82;0.82;;;20.00;35.40;;;;;;5058514;28;20077;-68
2023/01/22 04:25:59;;;;;;;0.82;0.82;;;20.00;35.40;;;;;;5058188;28;20123;-68
2023/01/22 04:28:26;;;;;;;1.05;0.95;;;20.00;35.40;;;;;;5058598;28;20206;-68
2023/01/22 04:30:54;;;;;;;0.75;0.75;;;20.00;35.40;;;;;;5057335;28;20460;-68
2023/01/22 04:33:21;;;;;;;0.65;0.65;;;20.00;35.40;;;;;;5058182;28;20072;-68
2023/01/22 04:35:50;;;;;;;0.68;0.68;;;20.00;35.40;;;;;;5057959;28;20099;-68
2023/01/22 04:38:18;;;;;;;1.27;1.08;;;20.00;35.50;;;;;;5056461;28;20079;-68
2023/01/22 04:40:45;;;;;;;0.57;0.57;;;20.00;35.40;;;;;;5058076;28;20083;-68
2023/01/22 04:43:12;;;;;;;1.00;0.90;;;20.00;35.40;;;;;;5057740;28;20091;-68
2023/01/22 04:45:39;;;;;;;0.82;0.82;;;20.00;35.50;;;;;;5058115;28;20055;-68
2023/01/22 04:48:10;;;;;;;0.65;0.65;;;20.00;35.50;;;;;;5056726;28;20520;-68
2023/01/22 04:50:37;;;;;;;0.70;0.70;;;20.00;35.40;;;;;;5057552;28;20045;-68
2023/01/22 04:53:04;;;;;;;1.08;0.80;;;20.00;35.50;;;;;;5058031;28;20083;-68
2023/01/22 04:55:31;;;;;;;0.90;0.90;;;20.00;35.50;;;;;;5056074;28;20059;-68
2023/01/22 04:58:00;;;;;;;0.45;0.40;;;20.00;35.50;;;;;;5057570;28;20053;-68
2023/01/22 05:00:29;;;;;;;0.88;0.88;;;20.00;35.50;;;;;;5057820;28;20040;-68
2023/01/22 05:03:01;;;;;;;0.80;0.80;;;20.00;35.50;;;;;;5056558;28;20125;-68
2023/01/22 05:05:28;;;;;;;0.98;0.63;;;20.00;35.50;;;;;;5057286;28;20121;-68
2023/01/22 05:07:56;;;;;;;0.82;0.82;;;20.00;35.50;;;;;;5057017;28;20076;-68
2023/01/22 05:10:23;;;;;;;0.60;0.60;;;20.00;35.50;;;;;;5057224;28;20076;-68
2023/01/22 05:12:50;;;;;;;0.70;0.70;;;20.00;35.50;;;;;;5056120;28;20092;-68
2023/01/22 05:15:18;;;;;;;0.68;0.68;;;20.00;35.50;;;;;;5056900;28;20049;-68
2023/01/22 05:17:51;;;;;;;0.90;0.90;;;20.00;35.50;;;;;;5057278;28;20458;-68
2023/01/22 05:20:19;;;;;;;0.52;0.52;;;20.00;35.50;;;;;;5057213;28;20424;-68
2023/01/22 05:22:47;;;;;;;0.90;0.90;;;20.00;35.50;;;;;;5057291;28;20045;-68
2023/01/22 05:25:14;;;;;;;0.57;0.57;;;20.00;35.50;;;;;;5057084;28;20456;-68
2023/01/22 05:27:41;;;;;;;0.50;0.45;;;20.00;35.50;;;;;;5057200;28;20053;-68
2023/01/22 05:30:10;;;;;;;0.80;0.60;;;20.00;35.50;;;;;;5056746;28;20055;-68
2023/01/22 05:32:37;;;;;;;0.90;0.90;;;20.00;35.50;;;;;;5057556;28;20053;-68
2023/01/22 05:35:05;;;;;;;1.20;1.13;;;20.00;35.50;;;;;;5055661;28;20072;-68
2023/01/22 05:37:32;;;;;;;0.85;0.85;;;20.00;35.40;;;;;;5056555;28;20432;-68
2023/01/22 05:40:00;;;;;;;1.75;1.00;;;20.00;35.30;;;;;;5056435;28;20451;-68
2023/01/22 05:42:28;;;;;;;0.90;0.90;;;20.00;35.20;;;;;;5056481;28;20108;-68
2023/01/22 05:44:55;;;;;;;0.75;0.75;;;19.90;35.20;;;;;;5056513;28;20102;-68
2023/01/22 05:47:22;;;;;;;0.80;0.80;;;19.90;35.20;;;;;;5048696;28;20060;-68
2023/01/22 05:49:49;;;;;;;0.98;0.98;;;19.90;35.30;;;;;;5036926;28;20120;-67
2023/01/22 05:52:16;;;;;;;1.10;1.10;;;19.90;35.30;;;;;;5035446;28;20045;-68
2023/01/22 05:54:43;;;;;;;0.70;0.70;;;19.90;35.30;;;;;;5040701;28;20049;-67
2023/01/22 05:57:10;;;;;;;0.88;0.88;;;19.90;35.30;;;;;;5035522;28;20048;-68
2023/01/22 05:59:38;;;;;;;1.42;1.33;;;19.90;35.30;;;;;;5036564;28;20049;-67
2023/01/22 06:02:05;;;;;;;1.38;0.80;;;19.90;35.30;;;;;;5036675;28;20041;-67
2023/01/22 06:04:32;;;;;;;0.90;0.90;;;20.00;35.40;;;;;;5051854;28;20133;-63
2023/01/22 06:06:59;;;;;;;1.10;1.00;;;20.00;35.40;;;;;;5036507;28;20534;-68
2023/01/22 06:09:26;;;;;;;0.88;0.88;;;19.90;35.30;;;;;;5036291;28;20053;-68
2023/01/22 06:11:53;;;;;;;0.57;0.57;;;19.90;35.30;;;;;;5036563;28;20075;-68
2023/01/22 06:14:21;;;;;;;0.80;0.80;;;20.00;35.30;;;;;;5036526;28;20085;-67
2023/01/22 06:16:48;;;;;;;1.15;1.05;;;20.00;35.20;;;;;;5035701;28;20045;-67
2023/01/22 06:19:15;;;;;;;1.25;1.05;;;20.00;35.20;;;;;;5047455;28;20099;-68
2023/01/22 06:21:42;;;;;;;1.05;0.82;;;20.00;35.20;;;;;;5055859;28;20075;-67
2023/01/22 06:24:10;;;;;;;1.52;1.42;;;20.00;35.10;;;;;;5055428;28;20056;-68
2023/01/22 06:26:37;;;;;;;0.93;0.93;;;20.00;35.10;;;;;;5055978;28;20083;-68
2023/01/22 06:29:05;;;;;;;1.55;1.13;;;20.10;35.10;;;;;;5053098;28;20319;-68
2023/01/22 06:31:32;;;;;;;1.45;1.23;;;20.10;35.10;;;;;;5055055;28;20049;-68
2023/01/22 06:33:59;;;;;;;1.20;1.10;;;20.10;35.10;;;;;;5056402;28;20518;-67
2023/01/22 06:36:27;;;;;;;1.75;1.65;;;20.10;35.10;;;;;;5054939;28;20076;-68
2023/01/22 06:38:54;;;;;;;0.90;0.90;;;20.10;35.00;;;;;;5055965;28;20103;-68
2023/01/22 06:41:21;;;;;;;1.42;1.33;;;20.20;35.00;;;;;;5054472;28;20056;-68
2023/01/22 06:43:48;;;;;;;1.25;1.15;;;20.20;35.00;;;;;;5055098;28;20053;-67
2023/01/22 06:46:16;;;;;;;1.77;1.45;;;20.10;34.90;;;;;;5055780;28;20049;-67
2023/01/22 06:48:43;;;;;;;0.82;0.82;;;20.20;34.90;;;;;;5054871;28;20053;-68
2023/01/22 06:51:10;;;;;;;1.75;1.33;;;20.20;34.80;;;;;;5055131;28;20485;-68
2023/01/22 06:53:38;;;;;;;1.05;1.02;;;20.20;34.80;;;;;;5055124;28;20103;-67
2023/01/22 06:56:05;;;;;;;1.15;1.15;;;20.30;34.80;;;;;;5053237;28;20087;-63
2023/01/22 06:58:33;;;;;;;1.55;1.05;;;20.30;34.80;;;;;;5054789;28;20049;-68
2023/01/22 07:01:01;;;;;;;1.05;1.05;;;20.30;34.70;;;;;;5055916;28;20052;-68
2023/01/22 07:03:28;;;;;;;1.40;1.30;;;20.30;34.70;;;;;;5054785;28;20509;-68
2023/01/22 07:05:57;;;;;;;1.35;1.25;;;20.30;34.70;;;;;;5053050;28;20383;-68
2023/01/22 07:08:26;;;;;;;1.30;1.13;;;20.30;34.60;;;;;;5055485;28;20061;-68
2023/01/22 07:10:53;;;;;;;1.30;1.20;;;20.30;34.60;;;;;;5054222;28;20041;-67
2023/01/22 07:13:20;;;;;;;1.40;1.30;;;20.40;34.60;;;;;;5053832;28;20088;-67
2023/01/22 07:15:51;;;;;;;1.40;1.30;;;20.40;34.50;;;;;;5055593;28;20417;-68
2023/01/22 07:18:20;;;;;;;1.30;1.20;;;20.40;34.50;;;;;;5054805;28;20401;-68
2023/01/22 07:20:47;;;;;;;1.27;1.23;;;20.50;34.50;;;;;;5055983;28;20565;-68
2023/01/22 07:23:15;;;;;;;1.45;1.35;;;20.50;34.40;;;;;;5055368;28;20138;-68
2023/01/22 07:25:43;;;;;;;3.25;1.25;;;20.50;34.40;;;;;;5054687;28;20501;-68
2023/01/22 07:28:13;;;;;;;1.30;1.20;;;20.50;34.30;;;;;;5054020;28;20124;-68
2023/01/22 07:30:42;;;;;;;3.03;1.45;;;20.50;34.30;;;;;;5054485;28;20073;-67
2023/01/22 07:33:10;;;;;;;1.58;1.00;;;20.60;34.30;;;;;;5057828;28;20052;-67
2023/01/22 07:35:38;;;;;;;1.23;1.17;;;20.60;34.20;;;;;;5057875;28;20079;-67
2023/01/22 07:38:06;;;;;;;1.52;1.42;;;20.60;34.20;;;;;;5057690;28;20128;-67
2023/01/22 07:40:34;;;;;;;1.40;1.30;;;20.60;34.20;;;;;;5058548;28;20049;-68
2023/01/22 07:43:05;;;;;;;1.67;1.33;;;20.70;34.10;;;;;;5059772;28;20071;-68
2023/01/22 07:45:33;;;;;;;1.38;1.27;;;20.70;34.10;;;;;;5058639;28;20405;-67
2023/01/22 07:48:01;;;;;;;1.50;1.40;;;20.70;34.00;;;;;;5058927;28;20056;-68
2023/01/22 07:50:31;;;;;;;1.77;1.45;;;20.70;34.00;;;;;;5058465;28;20041;-68
2023/01/22 07:52:59;;;;;;;2.03;1.83;;;20.70;33.90;;;;;;5058611;28;20136;-68
2023/01/22 07:55:27;;;;;;;1.83;1.73;;;20.70;33.80;;;;;;5057999;28;20159;-68
2023/01/22 07:57:59;;;;;;;1.63;1.52;;;20.80;33.90;;;;;;5057665;28;20493;-68
2023/01/22 08:00:26;;;;;;;2.70;2.50;;;20.80;33.80;;;;;;5056914;28;20123;-68
2023/01/22 08:02:54;;;;;;;2.00;1.85;;;20.80;33.80;;;;;;5058302;28;20048;-68
2023/01/22 08:05:21;;;;;;;1.92;1.77;;;20.80;33.80;;;;;;5058202;28;20493;-68
2023/01/22 08:07:48;;;;;;;2.55;1.73;;;20.80;33.80;;;;;;5056965;28;20114;-68
2023/01/22 08:10:16;;;;;;;1.73;1.63;;;20.90;33.70;;;;;;5056160;28;20552;-68
2023/01/22 08:12:44;;;;;;;2.92;2.25;;;20.90;33.70;;;;;;5058320;28;20091;-68
2023/01/22 08:15:12;;;;;;;2.83;2.10;;;20.90;33.70;;;;;;5056898;28;20079;-68
2023/01/22 08:17:41;;;;;;;2.35;2.10;;;20.90;33.60;;;;;;5058552;28;20053;-68
2023/01/22 08:20:09;;;;;;;2.08;1.88;;;21.00;33.70;;;;;;5058342;28;20087;-68
2023/01/22 08:22:36;;;;;;;2.17;1.98;;;21.00;33.60;;;;;;5058490;28;20160;-68
2023/01/22 08:25:04;;;;;;;1.77;1.67;;;21.00;33.60;;;;;;5057188;28;20574;-68
2023/01/22 08:27:33;;;;;;;1.90;1.80;;;21.00;33.60;;;;;;5058302;28;20049;-68
2023/01/22 08:30:02;;;;;;;2.63;2.08;;;21.00;33.50;;;;;;5058171;28;20053;-68
2023/01/22 08:32:30;;;;;;;2.80;2.40;;;21.00;33.50;;;;;;5058158;28;20075;-68
2023/01/22 08:34:57;;;;;;;2.50;2.28;;;21.10;33.50;;;;;;5057287;28;20049;-68
2023/01/22 08:37:24;;;;;;;1.98;1.88;;;21.10;33.50;;;;;;5057804;28;20045;-67
2023/01/22 08:39:51;;;;;;;1.58;1.48;;;21.10;33.50;;;;;;5057927;28;20068;-68
2023/01/22 08:42:18;;;;;;;2.58;2.38;;;21.10;33.50;;;;;;5057899;28;20147;-67
2023/01/22 08:44:45;;;;;;;2.28;2.08;;;21.10;33.40;;;;;;5057168;28;20053;-68
2023/01/22 08:47:13;;;;;;;2.15;1.95;;;21.10;33.40;;;;;;5057988;28;20075;-68
2023/01/22 08:49:40;;;;;;;2.70;2.22;;;21.20;33.40;;;;;;5056959;28;20071;-68
2023/01/22 08:52:07;;;;;;;2.25;2.05;;;21.20;33.40;;;;;;5057823;28;20083;-68
2023/01/22 08:54:35;;;;;;;2.40;2.20;;;21.20;33.30;;;;;;5057967;28;20049;-68
2023/01/22 08:57:02;;;;;;;2.60;2.22;;;21.20;33.30;;;;;;5057503;28;20140;-68
2023/01/22 08:59:29;;;;;;;2.35;2.15;;;21.20;33.30;;;;;;5057780;28;20448;-68
2023/01/22 09:01:59;;;;;;;2.25;2.08;;;21.30;33.30;;;;;;5057410;28;20428;-67
2023/01/22 09:04:27;;;;;;;1.90;1.80;;;21.30;33.30;;;;;;5057625;28;20077;-68
2023/01/22 09:06:55;;;;;;;2.38;2.03;;;21.30;33.30;;;;;;5057599;28;20052;-68
2023/01/22 09:09:22;;;;;;;2.42;2.15;;;21.30;33.30;;;;;;5057603;28;20084;-68
2023/01/22 09:11:49;;;;;;;2.63;2.28;;;21.30;33.30;;;;;;5057290;28;20520;-67
2023/01/22 09:14:16;;;;;;;2.30;1.85;;;21.30;33.40;;;;;;5056886;28;20045;-68
2023/01/22 09:16:44;;;;;;;1.77;1.67;;;21.30;33.40;;;;;;5054278;28;20053;-68
2023/01/22 09:19:11;;;;;;;2.17;1.98;;;21.40;33.40;;;;;;5055680;28;20386;-68
2023/01/22 09:21:39;;;;;;;2.55;2.17;;;21.40;33.50;;;;;;5056407;28;20072;-68
2023/01/22 09:24:06;;;;;;;7.22;2.60;;;21.40;33.50;;;;;;5056332;28;20053;-68
2023/01/22 09:26:35;;;;;;;5.28;2.50;;;21.40;33.60;;;;;;5055850;28;20405;-68
2023/01/22 09:29:04;;;;;;;2.55;2.10;;;21.40;33.60;;;;;;5057346;28;20417;-67
2023/01/22 09:31:33;;;;;;;4.80;2.78;;;21.40;33.60;;;;;;5055777;28;20136;-68
2023/01/22 09:34:03;;;;;;;5.10;2.78;;;21.40;33.60;;;;;;5056584;28;20483;-68
2023/01/22 09:36:30;;;;;;;2.65;2.45;;;21.50;33.70;;;;;;5056575;28;20132;-68
2023/01/22 09:38:58;;;;;;;7.07;2.72;;;21.50;33.70;;;;;;5056605;28;20057;-67
2023/01/22 09:41:34;;;;;;;4.03;2.78;;;21.50;33.60;;;;;;5057232;28;20048;-68
2023/01/22 09:44:26;;;;;;;3.45;2.75;;;21.50;33.60;;;;;;5055631;28;20081;-68
2023/01/22 09:47:02;;;;;;;3.50;2.90;;;21.60;33.60;;;;;;5056358;28;20131;-68
2023/01/22 09:50:03;;;;;;;7.63;2.80;;;21.60;33.60;;;;;;5055274;28;20131;-67
2023/01/22 09:52:33;;;;;;;4.35;2.53;;;21.60;33.50;;;;;;5056616;28;20045;-68
2023/01/22 09:55:00;;;;;;;4.63;2.53;;;21.60;33.50;;;;;;5056088;28;20045;-68
2023/01/22 09:57:27;;;;;;;3.75;2.50;;;21.60;33.50;;;;;;5056579;28;20055;-68
2023/01/22 09:59:58;;;;;;;2.70;2.35;;;21.60;33.50;;;;;;5056461;28;20044;-68
2023/01/22 10:02:36;;;;;;;5.40;2.85;;;21.60;33.40;;;;;;5056805;28;20080;-68
2023/01/22 10:05:36;;;;;;;6.68;2.70;;;21.70;33.50;;;;;;5056578;28;20048;-68
2023/01/22 10:08:15;;;;;;;5.63;2.88;;;21.70;33.50;;;;;;5056662;28;20132;-68
2023/01/22 10:10:43;;;;;;;3.65;2.83;;;21.70;33.40;;;;;;5056252;28;20059;-68
2023/01/22 10:13:19;;;;;;;4.05;2.70;;;21.70;33.40;;;;;;5056434;28;20140;-63
2023/01/22 10:15:49;;;;;;;2.53;2.33;;;21.70;33.40;;;;;;5056272;28;20118;-68
2023/01/22 10:18:44;;;;;;;4.18;3.35;;;21.70;33.40;;;;;;5056162;28;20048;-68
2023/01/22 10:21:18;;;;;;;3.83;2.78;;;21.70;33.40;;;;;;5056431;28;20104;-68
2023/01/22 10:23:47;;;;;;;4.50;3.13;;;21.70;33.40;;;;;;5055317;28;20076;-68
2023/01/22 10:26:23;;;;;;;2.63;2.42;;;21.70;33.40;;;;;;5055721;28;20076;-69
2023/01/22 10:28:55;;;;;;;3.15;2.85;;;21.70;33.40;;;;;;5056273;28;20045;-68
2023/01/22 10:31:27;;;;;;;4.50;3.30;;;21.70;33.30;;;;;;5055508;28;20120;-68
2023/01/22 10:34:00;;;;;;;3.22;2.65;;;21.70;33.30;;;;;;5052594;28;20041;-68
2023/01/22 10:36:29;;;;;;;3.30;2.92;;;21.70;33.30;;;;;;5053919;28;20085;-68
2023/01/22 10:39:12;;;;;;;2.60;2.40;;;21.70;33.80;;;;;;5054758;28;20041;-68
2023/01/22 10:41:44;;;;;;;3.65;2.58;;;21.70;33.20;;;;;;5055780;28;20065;-68
2023/01/22 10:44:22;;;;;;;3.47;3.08;;;21.70;33.20;;;;;;5056050;28;20099;-68
2023/01/22 10:46:52;;;;;;;5.07;2.67;;;21.70;33.20;;;;;;5055440;28;20098;-68
2023/01/22 10:49:22;;;;;;;4.03;2.92;;;21.80;33.30;;;;;;5055033;28;20102;-68
2023/01/22 10:51:56;;;;;;;;;;;21.70;33.10;;;;;;5056515;28;20084;-64
2023/01/22 10:54:34;;;;;;;4.05;3.65;;;21.80;33.20;;;;;;5055999;28;20007;-68
2023/01/22 10:57:18;;;;;;;4.25;2.97;;;21.80;33.20;;;;;;5056035;28;20045;-68
2023/01/22 10:59:56;;;;;;;3.20;2.92;;;21.80;33.70;;;;;;5055133;28;20049;-68
2023/01/22 11:02:25;;;;;;;3.60;3.00;;;21.80;33.10;;;;;;5055774;28;20075;-68
2023/01/22 11:04:52;;;;;;;4.68;3.47;;;21.80;33.10;;;;;;5055980;28;20056;-68
2023/01/22 11:07:28;;;;;;;3.17;2.80;;;21.80;33.10;;;;;;5058153;28;20494;-68
2023/01/22 11:10:22;;;;;;;3.80;3.10;;;21.80;33.00;;;;;;5059885;28;20401;-68
2023/01/22 11:12:54;;;;;;;3.30;2.97;;;21.80;33.00;;;;;;5059652;28;20103;-68
2023/01/22 11:15:43;;;;;;;3.65;3.28;;;21.80;33.00;;;;;;5059346;28;20049;-67
2023/01/22 11:18:17;;;;;;;4.78;3.70;;;21.80;33.00;;;;;;5058688;28;20379;-64
2023/01/22 11:20:55;;;;;;;3.65;3.30;;;21.80;32.90;;;;;;5059417;28;20053;-68
2023/01/22 11:23:41;;;;;;;3.92;3.25;;;21.90;33.00;;;;;;5059978;28;20076;-68
2023/01/22 11:26:47;;;;;;;3.67;3.25;;;21.90;33.00;;;;;;5059394;28;20131;-68
2023/01/22 11:29:38;;;;;;;3.78;3.28;;;21.90;32.90;;;;;;5057586;28;20045;-68
2023/01/22 11:32:41;;;;;;;3.53;3.22;;;21.90;32.90;;;;;;5057673;28;20537;-68
2023/01/22 11:35:48;;;;;;;3.88;3.15;;;21.90;32.90;;;;;;5058029;28;20075;-68
2023/01/22 11:38:50;;;;;;;5.05;3.13;;;21.90;32.80;;;;;;5047156;28;20053;-68
2023/01/22 11:41:36;;;;;;;3.60;3.03;;;21.90;32.80;;;;;;5058187;28;20090;-68
2023/01/22 11:44:27;;;;;;;3.92;3.15;;;22.00;32.80;;;;;;5058278;28;20136;-68
2023/01/22 11:47:28;;;;;;;3.90;3.40;;;22.00;32.80;;;;;;5058872;28;20056;-68
2023/01/22 11:50:15;;;;;;;;;;;22.00;32.70;;;;;;5058479;28;20041;-69
2023/01/22 11:53:08;;;;;;;5.78;4.13;;;22.00;32.70;;;;;;5057534;28;19931;-68
2023/01/22 11:55:53;;;;;;;4.47;3.13;;;22.00;33.20;;;;;;5059017;28;20100;-68
2023/01/22 11:58:48;;;;;;;3.55;3.25;;;22.00;32.70;;;;;;5059061;28;20045;-68
2023/01/22 12:01:42;;;;;;;4.00;2.95;;;22.00;32.70;;;;;;5058101;28;20045;-68
2023/01/22 12:04:36;;;;;;;3.97;3.35;;;22.00;32.70;;;;;;5058371;28;20049;-68
2023/01/22 12:07:22;;;;;;;3.90;3.22;;;22.00;32.60;;;;;;5056423;28;20464;-68
2023/01/22 12:10:29;;;;;;;3.75;3.40;;;22.00;32.60;;;;;;5058486;28;20136;-68
2023/01/22 12:13:35;;;;;;;4.90;3.45;;;22.00;32.70;;;;;;5058261;28;20055;-68
2023/01/22 12:16:28;;;;;;;3.58;3.28;;;22.00;32.70;;;;;;5058479;28;20132;-68
2023/01/22 12:19:24;;;;;;;3.17;2.88;;;22.00;32.70;;;;;;5056417;28;20045;-68
2023/01/22 12:22:30;;;;;;;4.55;3.45;;;21.90;32.70;;;;;;5057828;28;20045;-68
2023/01/22 12:25:26;;;;;;;4.10;3.28;;;21.90;32.70;;;;;;5058511;28;20085;-68
2023/01/22 12:27:58;;;;;;;5.32;3.75;;;21.90;32.70;;;;;;5057083;28;20051;-68
2023/01/22 12:30:41;;;;;;;5.03;3.83;;;21.80;32.70;;;;;;5058262;28;20055;-68
2023/01/22 12:33:13;;;;;;;4.30;3.88;;;21.90;32.80;;;;;;5058434;28;20048;-68
2023/01/22 12:35:41;;;;;;;5.00;3.67;;;21.90;32.80;;;;;;5057401;28;20057;-68
2023/01/22 12:38:29;;;;;;;4.50;3.95;;;21.90;32.80;;;;;;5057208;28;20045;-68
2023/01/22 12:41:19;;;;;;;4.38;3.97;;;21.80;32.80;;;;;;5057329;28;20044;-68
2023/01/22 12:43:52;;;;;;;5.65;4.32;;;21.80;32.80;;;;;;5056811;28;20045;-68
2023/01/22 12:46:46;;;;;;;4.95;4.20;;;21.80;32.90;;;;;;5056513;28;20528;-68
2023/01/22 12:49:15;;;;;;;4.78;4.15;;;21.80;32.80;;;;;;5057128;28;20393;-68
2023/01/22 12:51:46;;;;;;;4.15;3.70;;;21.80;32.90;;;;;;5056775;28;20103;-68
2023/01/22 12:54:21;;;;;;;;;;;21.80;32.80;;;;;;5057953;28;20109;-68
2023/01/22 12:56:50;;;;;;;5.45;4.55;;;21.80;32.80;;;;;;5057343;28;20449;-68
2023/01/22 12:59:41;;;;;;;4.65;3.95;;;21.80;32.80;;;;;;5058039;28;20099;-68
2023/01/22 13:02:34;;;;;;;5.05;4.55;;;21.80;32.80;;;;;;5057875;28;20048;-68
2023/01/22 13:05:16;;;;;;;6.70;4.50;;;21.80;32.80;;;;;;5057476;28;20501;-68
2023/01/22 13:07:44;;;;;;;6.13;4.53;;;21.80;32.90;;;;;;5056261;28;20127;-68
2023/01/22 13:10:28;;;;;;;5.30;4.10;;;21.80;32.80;;;;;;5057543;28;20088;-68
2023/01/22 13:13:02;;;;;;;5.28;3.88;;;21.80;32.90;;;;;;5049965;28;20489;-68
2023/01/22 13:15:36;;;;;;;6.03;4.78;;;21.80;32.80;;;;;;5053986;28;20049;-68
2023/01/22 13:18:20;;;;;;;5.22;4.30;;;21.80;32.80;;;;;;5053478;28;20075;-68
2023/01/22 13:21:07;;;;;;;5.07;4.30;;;21.80;32.90;;;;;;5057269;28;20045;-67
2023/01/22 13:23:40;;;;;;;4.38;3.67;;;21.80;32.80;;;;;;5057250;28;20084;-68